createdAt,value
2023-03-29T00:03:18.280Z,6.87
2023-03-29T00:08:46.447Z,6.41
2023-03-29T00:14:11.502Z,4.17
2023-03-29T00:19:37.071Z,2.55
2023-03-29T00:25:01.449Z,1.45
2023-03-29T00:30:25.573Z,0.65
2023-03-29T00:35:49.585Z,0.05
2023-03-29T00:41:14.815Z,-0.34
2023-03-29T00:46:39.527Z,-0.61
2023-03-29T00:52:03.854Z,-0.95
2023-03-29T00:57:30.655Z,-1.07
2023-03-29T01:02:59.932Z,-1.07
2023-03-29T01:08:33.054Z,-1.16
2023-03-29T01:14:16.160Z,-1.37
2023-03-29T01:19:48.137Z,-1.37
2023-03-29T01:25:30.042Z,-1.46
2023-03-29T01:31:00.564Z,-1.44
2023-03-29T01:36:29.940Z,-1.40
2023-03-29T01:42:12.254Z,-0.78
2023-03-29T01:47:40.211Z,2.45
2023-03-29T01:53:10.585Z,4.07
2023-03-29T01:58:40.054Z,5.26
2023-03-29T02:04:07.544Z,6.10
2023-03-29T02:09:33.898Z,6.64
2023-03-29T02:15:07.299Z,5.99
2023-03-29T02:20:44.016Z,3.68
2023-03-29T02:26:09.977Z,2.20
2023-03-29T02:31:46.128Z,1.26
2023-03-29T02:37:15.996Z,0.61
2023-03-29T02:42:43.097Z,0.19
2023-03-29T02:48:11.015Z,-0.07
2023-03-29T02:53:44.158Z,-0.24
2023-03-29T02:59:08.509Z,-0.57
2023-03-29T03:04:34.391Z,-1.03
2023-03-29T03:09:59.331Z,-1.43
2023-03-29T03:15:23.234Z,-1.53
2023-03-29T03:21:02.362Z,-1.49
2023-03-29T03:26:30.596Z,-0.22
2023-03-29T03:31:55.952Z,2.85
2023-03-29T03:37:40.844Z,4.26
2023-03-29T03:43:05.147Z,5.00
2023-03-29T03:48:29.653Z,5.61
2023-03-29T03:54:14.098Z,5.96
2023-03-29T04:00:01.846Z,6.21
2023-03-29T04:05:40.910Z,6.51
2023-03-29T04:11:05.788Z,5.90
2023-03-29T04:16:34.289Z,3.60
2023-03-29T04:22:10.823Z,2.05
2023-03-29T04:27:35.406Z,1.12
2023-03-29T04:33:04.420Z,0.36
2023-03-29T04:38:31.001Z,-0.23
2023-03-29T04:43:56.359Z,-0.58
2023-03-29T04:49:26.829Z,-0.67
2023-03-29T04:54:51.692Z,-0.65
2023-03-29T05:00:27.608Z,-0.64
2023-03-29T05:06:12.445Z,-0.64
2023-03-29T05:11:37.372Z,-0.59
2023-03-29T05:17:01.792Z,0.14
2023-03-29T05:22:26.638Z,3.30
2023-03-29T05:27:50.724Z,5.20
2023-03-29T05:33:15.065Z,6.22
2023-03-29T05:38:42.025Z,7.02
2023-03-29T05:44:06.856Z,7.53
2023-03-29T05:49:32.091Z,7.01
2023-03-29T05:55:00.567Z,4.83
2023-03-29T06:00:25.900Z,3.49
2023-03-29T06:06:02.620Z,2.74
2023-03-29T06:11:28.743Z,2.33
2023-03-29T06:17:09.465Z,2.10
2023-03-29T06:22:33.936Z,2.00
2023-03-29T06:27:58.076Z,2.01
2023-03-29T06:33:23.396Z,2.08
2023-03-29T06:39:00.440Z,2.21
2023-03-29T06:44:44.498Z,2.40
2023-03-29T06:50:18.103Z,2.60
2023-03-29T06:55:54.520Z,2.77
2023-03-29T07:01:55.205Z,2.93
2023-03-29T07:08:11.954Z,3.10
2023-03-29T07:13:45.223Z,3.31
2023-03-29T07:19:13.737Z,3.48
2023-03-29T07:24:53.866Z,3.64
2023-03-29T07:30:23.179Z,3.82
2023-03-29T07:35:48.244Z,4.04
2023-03-29T07:41:12.676Z,4.27
2023-03-29T07:47:02.362Z,4.51
2023-03-29T07:52:29.299Z,4.72
2023-03-29T07:57:54.028Z,4.93
2023-03-29T08:03:19.103Z,5.21
2023-03-29T08:08:43.350Z,5.52
2023-03-29T08:14:11.759Z,5.85
2023-03-29T08:19:50.915Z,6.06
2023-03-29T08:25:19.150Z,6.23
2023-03-29T08:30:46.803Z,6.50
2023-03-29T08:36:11.520Z,6.80
2023-03-29T08:42:01.333Z,7.05
2023-03-29T08:47:28.730Z,7.38
2023-03-29T08:52:59.510Z,7.62
2023-03-29T08:58:48.806Z,7.80
2023-03-29T09:04:17.458Z,8.00
2023-03-29T09:09:51.719Z,8.25
2023-03-29T09:15:30.701Z,8.36
2023-03-29T09:21:11.591Z,8.53
2023-03-29T09:26:39.184Z,8.67
2023-03-29T09:32:32.289Z,8.73
2023-03-29T09:37:59.543Z,8.84
2023-03-29T09:43:36.422Z,8.99
2023-03-29T09:49:04.870Z,9.21
2023-03-29T09:54:29.066Z,9.38
2023-03-29T10:00:20.066Z,9.48
2023-03-29T10:05:47.040Z,9.51
2023-03-29T10:11:20.739Z,9.47
2023-03-29T10:16:49.327Z,9.36
2023-03-29T10:22:28.075Z,9.42
2023-03-29T10:27:52.976Z,9.58
2023-03-29T10:33:20.159Z,9.69
2023-03-29T10:38:45.906Z,9.77
2023-03-29T10:44:27.844Z,9.88
2023-03-29T10:49:56.431Z,10.00
2023-03-29T10:55:25.504Z,10.05
2023-03-29T11:00:57.341Z,10.13
2023-03-29T11:06:41.396Z,10.11
2023-03-29T11:12:16.092Z,10.09
2023-03-29T11:18:15.110Z,10.10
2023-03-29T11:24:06.228Z,10.13
2023-03-29T11:29:58.978Z,10.14
2023-03-29T11:35:34.797Z,10.21
2023-03-29T11:41:12.343Z,10.22
2023-03-29T11:46:47.320Z,10.09
2023-03-29T11:52:24.740Z,10.01
2023-03-29T11:58:18.232Z,10.09
2023-03-29T12:03:56.078Z,10.21
2023-03-29T12:09:35.282Z,10.34
2023-03-29T12:15:07.555Z,10.52
2023-03-29T12:20:40.459Z,10.62
2023-03-29T12:26:34.189Z,10.62
2023-03-29T12:31:58.157Z,10.65
2023-03-29T12:38:16.578Z,10.61
2023-03-29T12:44:04.116Z,10.65
2023-03-29T12:49:46.216Z,10.75
2023-03-29T12:55:25.575Z,10.87
2023-03-29T13:01:05.798Z,11.17
2023-03-29T13:06:56.519Z,11.44
2023-03-29T13:12:25.383Z,11.29
2023-03-29T13:18:03.078Z,11.14
2023-03-29T13:23:42.398Z,10.73
2023-03-29T13:29:24.559Z,10.32
2023-03-29T13:34:54.721Z,10.14
2023-03-29T13:40:43.361Z,10.30
2023-03-29T13:46:20.924Z,10.59
2023-03-29T13:51:53.990Z,10.50
2023-03-29T13:57:20.270Z,10.38
2023-03-29T14:03:04.720Z,10.43
2023-03-29T14:08:37.725Z,10.43
2023-03-29T14:14:05.491Z,10.37
2023-03-29T14:19:35.780Z,10.11
2023-03-29T14:25:07.728Z,9.91
2023-03-29T14:30:32.303Z,9.64
2023-03-29T14:36:01.309Z,9.46
2023-03-29T14:41:34.847Z,9.33
2023-03-29T14:47:00.390Z,9.19
2023-03-29T14:52:25.241Z,9.11
2023-03-29T14:57:50.643Z,9.04
2023-03-29T15:03:16.196Z,8.94
2023-03-29T15:08:50.811Z,8.86
2023-03-29T15:14:24.532Z,8.78
2023-03-29T15:19:53.791Z,8.69
2023-03-29T15:25:20.248Z,8.64
2023-03-29T15:30:49.414Z,8.61
2023-03-29T15:36:18.085Z,8.62
2023-03-29T15:41:44.653Z,8.64
2023-03-29T15:47:13.524Z,8.68
2023-03-29T15:52:38.731Z,8.70
2023-03-29T15:58:03.011Z,8.73
2023-03-29T16:03:27.633Z,8.78
2023-03-29T16:08:51.945Z,8.76
2023-03-29T16:14:27.641Z,8.71
2023-03-29T16:19:52.409Z,8.61
2023-03-29T16:25:19.917Z,8.51
2023-03-29T16:30:44.056Z,8.43
2023-03-29T16:36:08.536Z,8.36
2023-03-29T16:41:32.886Z,8.30
2023-03-29T16:47:00.767Z,8.25
2023-03-29T16:52:26.041Z,8.19
2023-03-29T16:57:51.465Z,8.15
2023-03-29T17:03:15.124Z,8.07
2023-03-29T17:08:39.756Z,8.00
2023-03-29T17:14:03.801Z,7.92
2023-03-29T17:19:29.000Z,7.85
2023-03-29T17:24:53.598Z,7.80
2023-03-29T17:30:18.282Z,7.76
2023-03-29T17:35:44.664Z,7.73
2023-03-29T17:41:09.404Z,7.70
2023-03-29T17:46:33.506Z,7.68
2023-03-29T17:51:59.486Z,7.67
2023-03-29T17:57:24.640Z,7.67
2023-03-29T18:02:49.552Z,7.64
2023-03-29T18:08:15.230Z,7.59
2023-03-29T18:13:41.732Z,7.54
2023-03-29T18:19:06.764Z,7.49
2023-03-29T18:24:32.202Z,7.43
2023-03-29T18:29:58.761Z,7.33
2023-03-29T18:35:23.008Z,7.22
2023-03-29T18:40:48.365Z,7.15
2023-03-29T18:46:12.631Z,7.10
2023-03-29T18:51:36.974Z,8.14
2023-03-29T18:57:02.113Z,10.76
2023-03-29T19:02:26.716Z,12.17
2023-03-29T19:07:51.461Z,13.08
2023-03-29T19:13:15.988Z,13.67
2023-03-29T19:18:40.182Z,13.45
2023-03-29T19:24:05.651Z,11.63
2023-03-29T19:29:30.930Z,10.33
2023-03-29T19:34:56.278Z,9.42
2023-03-29T19:40:21.337Z,8.67
2023-03-29T19:45:50.669Z,8.09
2023-03-29T19:51:15.257Z,7.70
2023-03-29T19:56:39.380Z,7.48
2023-03-29T20:02:05.148Z,7.32
2023-03-29T20:07:29.622Z,7.21
2023-03-29T20:12:54.067Z,7.10
2023-03-29T20:18:18.181Z,7.01
2023-03-29T20:23:42.847Z,6.94
2023-03-29T20:29:07.734Z,6.90
2023-03-29T20:34:32.822Z,6.85
2023-03-29T20:39:59.251Z,7.88
2023-03-29T20:45:23.142Z,10.57
2023-03-29T20:50:47.618Z,12.02
2023-03-29T20:56:11.391Z,12.85
2023-03-29T21:01:40.847Z,13.38
2023-03-29T21:07:06.950Z,12.95
2023-03-29T21:12:32.002Z,10.93
2023-03-29T21:17:56.662Z,9.55
2023-03-29T21:23:21.317Z,8.62
2023-03-29T21:28:45.202Z,7.97
2023-03-29T21:34:09.490Z,7.54
2023-03-29T21:39:34.422Z,7.31
2023-03-29T21:44:59.212Z,7.17
2023-03-29T21:50:23.503Z,7.10
2023-03-29T21:55:51.860Z,8.11
2023-03-29T22:01:15.985Z,10.40
2023-03-29T22:06:40.118Z,11.83
2023-03-29T22:12:05.874Z,12.77
2023-03-29T22:17:30.368Z,13.21
2023-03-29T22:22:54.204Z,12.40
2023-03-29T22:28:18.137Z,10.56
2023-03-29T22:33:43.149Z,9.38
2023-03-29T22:39:07.388Z,8.59
2023-03-29T22:44:33.429Z,8.08
2023-03-29T22:49:57.562Z,7.72
2023-03-29T22:55:21.742Z,7.45
2023-03-29T23:00:46.806Z,7.26
2023-03-29T23:06:10.787Z,7.14
2023-03-29T23:11:34.428Z,8.09
2023-03-29T23:17:00.161Z,10.45
2023-03-29T23:22:24.810Z,11.46
2023-03-29T23:27:48.934Z,12.10
2023-03-29T23:33:14.897Z,12.55
2023-03-29T23:38:40.488Z,12.31
2023-03-29T23:44:04.728Z,10.68
2023-03-29T23:49:30.580Z,9.53
2023-03-29T23:54:54.992Z,8.72
